sensor_id;sensor_type;location;lat;lon;timestamp;temperature;humidity
23685;DHT22;12020;51.384;6.908;2023-07-13T00:01:48;18.00;99.90
23685;DHT22;12020;51.384;6.908;2023-07-13T00:04:27;18.00;99.90
23685;DHT22;12020;51.384;6.908;2023-07-13T00:06:55;17.90;99.90
23685;DHT22;12020;51.384;6.908;2023-07-13T00:09:27;17.90;99.90
23685;DHT22;12020;51.384;6.908;2023-07-13T00:11:56;17.90;99.90
23685;DHT22;12020;51.384;6.908;2023-07-13T00:14:27;17.90;99.90
23685;DHT22;12020;51.384;6.908;2023-07-13T00:16:55;17.90;99.90
23685;DHT22;12020;51.384;6.908;2023-07-13T00:19:28;17.80;99.90
23685;DHT22;12020;51.384;6.908;2023-07-13T00:21:59;17.80;99.90
23685;DHT22;12020;51.384;6.908;2023-07-13T00:24:29;17.70;99.90
23685;DHT22;12020;51.384;6.908;2023-07-13T00:27:10;17.70;99.90
23685;DHT22;12020;51.384;6.908;2023-07-13T00:29:38;17.70;99.90
23685;DHT22;12020;51.384;6.908;2023-07-13T00:32:13;17.60;99.90
23685;DHT22;12020;51.384;6.908;2023-07-13T00:34:45;17.60;99.90
23685;DHT22;12020;51.384;6.908;2023-07-13T00:37:16;17.70;99.90
23685;DHT22;12020;51.384;6.908;2023-07-13T00:39:46;17.60;99.90
23685;DHT22;12020;51.384;6.908;2023-07-13T00:42:14;17.50;99.90
23685;DHT22;12020;51.384;6.908;2023-07-13T00:47:49;17.50;99.90
23685;DHT22;12020;51.384;6.908;2023-07-13T00:50:29;17.50;99.90
23685;DHT22;12020;51.384;6.908;2023-07-13T00:53:19;17.50;99.90
23685;DHT22;12020;51.384;6.908;2023-07-13T00:55:49;17.50;99.90
23685;DHT22;12020;51.384;6.908;2023-07-13T00:58:20;17.40;99.90
23685;DHT22;12020;51.384;6.908;2023-07-13T01:00:54;17.40;99.90
23685;DHT22;12020;51.384;6.908;2023-07-13T01:03:27;17.40;99.90
23685;DHT22;12020;51.384;6.908;2023-07-13T01:05:57;17.40;99.90
23685;DHT22;12020;51.384;6.908;2023-07-13T01:08:28;17.40;99.90
23685;DHT22;12020;51.384;6.908;2023-07-13T01:10:58;17.40;99.90
23685;DHT22;12020;51.384;6.908;2023-07-13T01:13:29;17.30;99.90
23685;DHT22;12020;51.384;6.908;2023-07-13T01:16:14;17.30;99.90
23685;DHT22;12020;51.384;6.908;2023-07-13T01:18:46;17.30;99.90
23685;DHT22;12020;51.384;6.908;2023-07-13T01:21:23;17.30;99.90
23685;DHT22;12020;51.384;6.908;2023-07-13T01:23:50;17.30;99.90
23685;DHT22;12020;51.384;6.908;2023-07-13T01:26:16;17.30;99.90
23685;DHT22;12020;51.384;6.908;2023-07-13T01:28:43;17.30;99.90
23685;DHT22;12020;51.384;6.908;2023-07-13T01:31:13;17.40;99.90
23685;DHT22;12020;51.384;6.908;2023-07-13T01:33:42;17.40;99.90
23685;DHT22;12020;51.384;6.908;2023-07-13T01:36:18;17.30;99.90
23685;DHT22;12020;51.384;6.908;2023-07-13T01:38:54;17.30;99.90
23685;DHT22;12020;51.384;6.908;2023-07-13T01:41:28;17.40;99.90
23685;DHT22;12020;51.384;6.908;2023-07-13T01:43:56;17.30;99.90
23685;DHT22;12020;51.384;6.908;2023-07-13T01:46:28;17.20;99.90
23685;DHT22;12020;51.384;6.908;2023-07-13T01:49:03;17.20;99.90
23685;DHT22;12020;51.384;6.908;2023-07-13T01:51:33;17.20;99.90
23685;DHT22;12020;51.384;6.908;2023-07-13T01:53:59;17.20;99.90
23685;DHT22;12020;51.384;6.908;2023-07-13T01:56:38;17.20;99.90
23685;DHT22;12020;51.384;6.908;2023-07-13T01:59:05;17.20;99.90
23685;DHT22;12020;51.384;6.908;2023-07-13T02:01:39;17.10;99.90
23685;DHT22;12020;51.384;6.908;2023-07-13T02:04:16;17.10;99.90
23685;DHT22;12020;51.384;6.908;2023-07-13T02:06:44;17.10;99.90
23685;DHT22;12020;51.384;6.908;2023-07-13T02:09:12;17.10;99.90
23685;DHT22;12020;51.384;6.908;2023-07-13T02:11:39;17.10;99.90
23685;DHT22;12020;51.384;6.908;2023-07-13T02:14:10;17.10;99.90
23685;DHT22;12020;51.384;6.908;2023-07-13T02:16:45;17.10;99.90
23685;DHT22;12020;51.384;6.908;2023-07-13T02:19:20;17.10;99.90
23685;DHT22;12020;51.384;6.908;2023-07-13T02:21:46;17.10;99.90
23685;DHT22;12020;51.384;6.908;2023-07-13T02:24:11;17.10;99.90
23685;DHT22;12020;51.384;6.908;2023-07-13T02:26:44;17.00;99.90
23685;DHT22;12020;51.384;6.908;2023-07-13T02:29:15;17.00;99.90
23685;DHT22;12020;51.384;6.908;2023-07-13T02:31:44;17.00;99.90
23685;DHT22;12020;51.384;6.908;2023-07-13T02:34:28;17.00;99.90
23685;DHT22;12020;51.384;6.908;2023-07-13T02:36:54;17.00;99.90
23685;DHT22;12020;51.384;6.908;2023-07-13T02:39:37;16.90;99.90
23685;DHT22;12020;51.384;6.908;2023-07-13T02:42:04;16.90;99.90
23685;DHT22;12020;51.384;6.908;2023-07-13T02:44:32;16.90;99.90
23685;DHT22;12020;51.384;6.908;2023-07-13T02:47:03;16.90;99.90
23685;DHT22;12020;51.384;6.908;2023-07-13T02:49:38;16.90;99.90
23685;DHT22;12020;51.384;6.908;2023-07-13T02:52:05;16.90;99.90
23685;DHT22;12020;51.384;6.908;2023-07-13T02:54:32;16.80;99.90
23685;DHT22;12020;51.384;6.908;2023-07-13T02:57:05;16.90;99.90
23685;DHT22;12020;51.384;6.908;2023-07-13T02:59:42;16.80;99.90
23685;DHT22;12020;51.384;6.908;2023-07-13T03:02:20;16.80;99.90
23685;DHT22;12020;51.384;6.908;2023-07-13T03:04:51;16.80;99.90
23685;DHT22;12020;51.384;6.908;2023-07-13T03:07:26;16.80;99.90
23685;DHT22;12020;51.384;6.908;2023-07-13T03:10:02;16.80;99.90
23685;DHT22;12020;51.384;6.908;2023-07-13T03:12:30;16.80;99.90
23685;DHT22;12020;51.384;6.908;2023-07-13T03:14:58;16.70;99.90
23685;DHT22;12020;51.384;6.908;2023-07-13T03:17:24;16.70;99.90
23685;DHT22;12020;51.384;6.908;2023-07-13T03:19:51;16.70;99.90
23685;DHT22;12020;51.384;6.908;2023-07-13T03:22:36;16.70;99.90
23685;DHT22;12020;51.384;6.908;2023-07-13T03:25:01;16.70;99.90
23685;DHT22;12020;51.384;6.908;2023-07-13T03:27:34;16.60;99.90
23685;DHT22;12020;51.384;6.908;2023-07-13T03:30:24;16.60;99.90
23685;DHT22;12020;51.384;6.908;2023-07-13T03:32:49;16.60;99.90
23685;DHT22;12020;51.384;6.908;2023-07-13T03:35:16;16.60;99.90
23685;DHT22;12020;51.384;6.908;2023-07-13T03:37:43;16.50;99.90
23685;DHT22;12020;51.384;6.908;2023-07-13T03:40:10;16.60;99.90
23685;DHT22;12020;51.384;6.908;2023-07-13T03:42:39;16.60;99.90
23685;DHT22;12020;51.384;6.908;2023-07-13T03:45:10;16.60;99.90
23685;DHT22;12020;51.384;6.908;2023-07-13T03:47:42;16.50;99.90
23685;DHT22;12020;51.384;6.908;2023-07-13T03:50:23;16.50;99.90
23685;DHT22;12020;51.384;6.908;2023-07-13T03:52:50;16.50;99.90
23685;DHT22;12020;51.384;6.908;2023-07-13T03:55:22;16.50;99.90
23685;DHT22;12020;51.384;6.908;2023-07-13T04:00:52;16.50;99.90
23685;DHT22;12020;51.384;6.908;2023-07-13T04:03:27;16.50;99.90
23685;DHT22;12020;51.384;6.908;2023-07-13T04:05:55;16.50;99.90
23685;DHT22;12020;51.384;6.908;2023-07-13T04:08:30;16.50;99.90
23685;DHT22;12020;51.384;6.908;2023-07-13T04:11:08;16.50;99.90
23685;DHT22;12020;51.384;6.908;2023-07-13T04:13:34;16.50;99.90
23685;DHT22;12020;51.384;6.908;2023-07-13T04:16:07;16.50;99.90
23685;DHT22;12020;51.384;6.908;2023-07-13T04:18:47;16.50;99.90
23685;DHT22;12020;51.384;6.908;2023-07-13T04:21:14;16.50;99.90
23685;DHT22;12020;51.384;6.908;2023-07-13T04:23:41;16.50;99.90
23685;DHT22;12020;51.384;6.908;2023-07-13T04:26:08;16.50;99.90
23685;DHT22;12020;51.384;6.908;2023-07-13T04:28:35;16.50;99.90
23685;DHT22;12020;51.384;6.908;2023-07-13T04:31:05;16.60;99.90
23685;DHT22;12020;51.384;6.908;2023-07-13T04:33:37;16.60;99.90
23685;DHT22;12020;51.384;6.908;2023-07-13T04:36:21;16.60;99.90
23685;DHT22;12020;51.384;6.908;2023-07-13T04:38:48;16.60;99.90
23685;DHT22;12020;51.384;6.908;2023-07-13T04:41:22;16.70;99.90
23685;DHT22;12020;51.384;6.908;2023-07-13T04:44:11;16.80;99.90
23685;DHT22;12020;51.384;6.908;2023-07-13T04:46:47;16.90;99.90
23685;DHT22;12020;51.384;6.908;2023-07-13T04:49:23;16.90;99.90
23685;DHT22;12020;51.384;6.908;2023-07-13T04:51:50;16.90;99.90
23685;DHT22;12020;51.384;6.908;2023-07-13T04:54:18;16.90;99.90
23685;DHT22;12020;51.384;6.908;2023-07-13T04:56:51;17.00;99.90
23685;DHT22;12020;51.384;6.908;2023-07-13T04:59:17;16.90;99.90
23685;DHT22;12020;51.384;6.908;2023-07-13T05:01:44;16.90;99.90
23685;DHT22;12020;51.384;6.908;2023-07-13T05:04:12;16.90;99.90
23685;DHT22;12020;51.384;6.908;2023-07-13T05:06:41;17.00;99.90
23685;DHT22;12020;51.384;6.908;2023-07-13T05:09:14;17.00;99.90
23685;DHT22;12020;51.384;6.908;2023-07-13T05:11:43;17.00;99.90
23685;DHT22;12020;51.384;6.908;2023-07-13T05:14:23;17.00;99.90
23685;DHT22;12020;51.384;6.908;2023-07-13T05:16:57;17.00;99.90
23685;DHT22;12020;51.384;6.908;2023-07-13T05:19:27;16.90;99.90
23685;DHT22;12020;51.384;6.908;2023-07-13T05:21:57;17.10;99.90
23685;DHT22;12020;51.384;6.908;2023-07-13T05:24:25;17.00;99.90
23685;DHT22;12020;51.384;6.908;2023-07-13T05:26:59;17.00;99.90
23685;DHT22;12020;51.384;6.908;2023-07-13T05:29:30;17.10;99.90
23685;DHT22;12020;51.384;6.908;2023-07-13T05:32:00;17.00;99.90
23685;DHT22;12020;51.384;6.908;2023-07-13T05:34:27;17.00;99.90
23685;DHT22;12020;51.384;6.908;2023-07-13T05:36:55;17.10;99.90
23685;DHT22;12020;51.384;6.908;2023-07-13T05:39:31;17.10;99.90
23685;DHT22;12020;51.384;6.908;2023-07-13T05:42:13;17.10;99.90
23685;DHT22;12020;51.384;6.908;2023-07-13T05:44:39;17.30;99.90
23685;DHT22;12020;51.384;6.908;2023-07-13T05:47:05;17.50;99.90
23685;DHT22;12020;51.384;6.908;2023-07-13T05:49:31;17.70;99.90
23685;DHT22;12020;51.384;6.908;2023-07-13T05:51:57;17.80;99.90
23685;DHT22;12020;51.384;6.908;2023-07-13T05:54:23;17.90;99.90
23685;DHT22;12020;51.384;6.908;2023-07-13T12:34:11;24.80;99.90
23685;DHT22;12020;51.384;6.908;2023-07-13T12:37:02;24.70;99.90
23685;DHT22;12020;51.384;6.908;2023-07-13T12:39:53;24.90;99.90
23685;DHT22;12020;51.384;6.908;2023-07-13T14:59:13;23.10;99.90
23685;DHT22;12020;51.384;6.908;2023-07-13T15:01:45;23.00;99.90
23685;DHT22;12020;51.384;6.908;2023-07-13T15:04:18;23.00;99.90
23685;DHT22;12020;51.384;6.908;2023-07-13T15:06:58;22.90;99.90
23685;DHT22;12020;51.384;6.908;2023-07-13T15:09:26;22.80;99.90
23685;DHT22;12020;51.384;6.908;2023-07-13T15:11:56;22.70;99.90
23685;DHT22;12020;51.384;6.908;2023-07-13T15:14:24;22.70;99.90
23685;DHT22;12020;51.384;6.908;2023-07-13T15:16:53;22.70;99.90
23685;DHT22;12020;51.384;6.908;2023-07-13T15:19:27;22.70;99.90
23685;DHT22;12020;51.384;6.908;2023-07-13T15:21:59;22.70;99.90
23685;DHT22;12020;51.384;6.908;2023-07-13T15:24:25;22.50;99.90
23685;DHT22;12020;51.384;6.908;2023-07-13T15:26:51;22.20;99.90
23685;DHT22;12020;51.384;6.908;2023-07-13T15:29:17;22.10;99.90
23685;DHT22;12020;51.384;6.908;2023-07-13T15:31:47;22.00;99.90
23685;DHT22;12020;51.384;6.908;2023-07-13T15:34:20;21.90;99.90
23685;DHT22;12020;51.384;6.908;2023-07-13T16:35:54;20.90;99.90
23685;DHT22;12020;51.384;6.908;2023-07-13T16:48:43;21.00;99.90
23685;DHT22;12020;51.384;6.908;2023-07-13T16:51:10;21.10;99.90
23685;DHT22;12020;51.384;6.908;2023-07-13T16:53:36;21.20;99.90
23685;DHT22;12020;51.384;6.908;2023-07-13T16:56:02;21.30;99.90
23685;DHT22;12020;51.384;6.908;2023-07-13T16:58:30;21.50;99.90
23685;DHT22;12020;51.384;6.908;2023-07-13T17:00:58;21.50;99.90
23685;DHT22;12020;51.384;6.908;2023-07-13T17:03:24;21.70;99.90
23685;DHT22;12020;51.384;6.908;2023-07-13T17:05:52;21.70;99.90
23685;DHT22;12020;51.384;6.908;2023-07-13T17:08:28;21.80;99.90
23685;DHT22;12020;51.384;6.908;2023-07-13T17:11:00;21.80;99.90
23685;DHT22;12020;51.384;6.908;2023-07-13T17:13:28;21.80;99.90
23685;DHT22;12020;51.384;6.908;2023-07-13T17:15:55;21.80;99.90
23685;DHT22;12020;51.384;6.908;2023-07-13T17:18:29;21.80;99.90
23685;DHT22;12020;51.384;6.908;2023-07-13T17:21:06;21.80;99.90
23685;DHT22;12020;51.384;6.908;2023-07-13T17:23:32;21.60;99.90
23685;DHT22;12020;51.384;6.908;2023-07-13T17:25:58;21.60;99.90
23685;DHT22;12020;51.384;6.908;2023-07-13T17:28:25;21.70;99.90
23685;DHT22;12020;51.384;6.908;2023-07-13T17:30:53;21.80;99.90
23685;DHT22;12020;51.384;6.908;2023-07-13T17:33:33;21.80;99.90
23685;DHT22;12020;51.384;6.908;2023-07-13T17:36:10;21.90;99.90
23685;DHT22;12020;51.384;6.908;2023-07-13T17:38:44;21.90;99.90
23685;DHT22;12020;51.384;6.908;2023-07-13T17:41:13;21.90;99.90
23685;DHT22;12020;51.384;6.908;2023-07-13T17:43:44;22.00;99.90
23685;DHT22;12020;51.384;6.908;2023-07-13T17:46:15;21.90;99.90
23685;DHT22;12020;51.384;6.908;2023-07-13T17:48:44;22.00;99.90
23685;DHT22;12020;51.384;6.908;2023-07-13T18:48:23;20.50;99.90
23685;DHT22;12020;51.384;6.908;2023-07-13T18:50:53;20.50;99.90
23685;DHT22;12020;51.384;6.908;2023-07-13T18:55:56;20.30;99.90
23685;DHT22;12020;51.384;6.908;2023-07-13T18:58:23;20.30;99.90
23685;DHT22;12020;51.384;6.908;2023-07-13T19:00:51;20.10;99.90
23685;DHT22;12020;51.384;6.908;2023-07-13T19:03:32;20.10;99.90
23685;DHT22;12020;51.384;6.908;2023-07-13T19:06:00;20.10;99.90
23685;DHT22;12020;51.384;6.908;2023-07-13T19:08:27;20.10;99.90
23685;DHT22;12020;51.384;6.908;2023-07-13T19:10:54;20.00;99.90
23685;DHT22;12020;51.384;6.908;2023-07-13T19:13:23;19.90;99.90
23685;DHT22;12020;51.384;6.908;2023-07-13T19:15:51;19.90;99.90
23685;DHT22;12020;51.384;6.908;2023-07-13T19:18:22;19.80;99.90
23685;DHT22;12020;51.384;6.908;2023-07-13T19:20:53;19.70;99.90
23685;DHT22;12020;51.384;6.908;2023-07-13T19:26:04;19.50;99.90
23685;DHT22;12020;51.384;6.908;2023-07-13T19:28:39;19.50;99.90
23685;DHT22;12020;51.384;6.908;2023-07-13T19:33:44;19.40;99.90
23685;DHT22;12020;51.384;6.908;2023-07-13T19:36:18;19.40;99.90
23685;DHT22;12020;51.384;6.908;2023-07-13T19:41:23;19.20;99.90
23685;DHT22;12020;51.384;6.908;2023-07-13T19:43:51;19.10;99.90
23685;DHT22;12020;51.384;6.908;2023-07-13T19:46:35;19.10;99.90
23685;DHT22;12020;51.384;6.908;2023-07-13T19:51:41;19.00;99.90
23685;DHT22;12020;51.384;6.908;2023-07-13T19:57:31;18.80;99.90
23685;DHT22;12020;51.384;6.908;2023-07-13T20:00:22;18.80;99.90
23685;DHT22;12020;51.384;6.908;2023-07-13T20:03:26;18.70;99.90
23685;DHT22;12020;51.384;6.908;2023-07-13T20:05:55;18.70;99.90
23685;DHT22;12020;51.384;6.908;2023-07-13T20:08:23;18.60;99.90
23685;DHT22;12020;51.384;6.908;2023-07-13T20:16:32;18.40;99.90
23685;DHT22;12020;51.384;6.908;2023-07-13T20:19:02;18.40;99.90
23685;DHT22;12020;51.384;6.908;2023-07-13T20:21:34;18.40;99.90
23685;DHT22;12020;51.384;6.908;2023-07-13T20:24:11;18.30;99.90
23685;DHT22;12020;51.384;6.908;2023-07-13T20:26:46;18.30;99.90
23685;DHT22;12020;51.384;6.908;2023-07-13T20:29:14;18.30;99.90
23685;DHT22;12020;51.384;6.908;2023-07-13T20:31:42;18.20;99.90
23685;DHT22;12020;51.384;6.908;2023-07-13T20:34:16;18.20;99.90
23685;DHT22;12020;51.384;6.908;2023-07-13T20:36:49;18.30;99.90
23685;DHT22;12020;51.384;6.908;2023-07-13T20:39:19;18.40;99.90
23685;DHT22;12020;51.384;6.908;2023-07-13T20:41:45;18.30;99.90
23685;DHT22;12020;51.384;6.908;2023-07-13T20:44:11;18.40;99.90
23685;DHT22;12020;51.384;6.908;2023-07-13T20:46:38;18.40;99.90
23685;DHT22;12020;51.384;6.908;2023-07-13T20:49:10;18.40;99.90
23685;DHT22;12020;51.384;6.908;2023-07-13T20:51:45;18.30;99.90
23685;DHT22;12020;51.384;6.908;2023-07-13T20:54:16;18.30;99.90
23685;DHT22;12020;51.384;6.908;2023-07-13T20:56:46;18.30;99.90
23685;DHT22;12020;51.384;6.908;2023-07-13T20:59:15;18.30;99.90
23685;DHT22;12020;51.384;6.908;2023-07-13T21:01:43;18.20;99.90
23685;DHT22;12020;51.384;6.908;2023-07-13T21:04:13;18.20;99.90
23685;DHT22;12020;51.384;6.908;2023-07-13T21:06:39;18.20;99.90
23685;DHT22;12020;51.384;6.908;2023-07-13T21:09:17;18.10;99.90
23685;DHT22;12020;51.384;6.908;2023-07-13T21:11:52;18.10;99.90
23685;DHT22;12020;51.384;6.908;2023-07-13T21:14:19;17.90;99.90
23685;DHT22;12020;51.384;6.908;2023-07-13T21:17:02;18.00;99.90
23685;DHT22;12020;51.384;6.908;2023-07-13T21:19:29;17.90;99.90
23685;DHT22;12020;51.384;6.908;2023-07-13T21:22:01;17.80;99.90
23685;DHT22;12020;51.384;6.908;2023-07-13T21:24:28;17.80;99.90
23685;DHT22;12020;51.384;6.908;2023-07-13T21:27:02;17.80;99.90
23685;DHT22;12020;51.384;6.908;2023-07-13T21:29:43;17.80;99.90
23685;DHT22;12020;51.384;6.908;2023-07-13T21:32:23;17.70;99.90
23685;DHT22;12020;51.384;6.908;2023-07-13T21:34:52;17.70;99.90
23685;DHT22;12020;51.384;6.908;2023-07-13T21:37:21;17.60;99.90
23685;DHT22;12020;51.384;6.908;2023-07-13T21:39:51;17.50;99.90
23685;DHT22;12020;51.384;6.908;2023-07-13T21:42:37;17.50;99.90
23685;DHT22;12020;51.384;6.908;2023-07-13T21:45:26;17.40;99.90
23685;DHT22;12020;51.384;6.908;2023-07-13T21:48:00;17.40;99.90
23685;DHT22;12020;51.384;6.908;2023-07-13T21:50:38;17.40;99.90
23685;DHT22;12020;51.384;6.908;2023-07-13T21:53:29;17.30;99.90
23685;DHT22;12020;51.384;6.908;2023-07-13T21:56:00;17.30;99.90
23685;DHT22;12020;51.384;6.908;2023-07-13T21:58:33;17.20;99.90
23685;DHT22;12020;51.384;6.908;2023-07-13T22:01:03;17.10;99.90
23685;DHT22;12020;51.384;6.908;2023-07-13T22:03:35;17.10;99.90
23685;DHT22;12020;51.384;6.908;2023-07-13T22:06:04;17.00;99.90
23685;DHT22;12020;51.384;6.908;2023-07-13T22:08:53;16.90;99.90
23685;DHT22;12020;51.384;6.908;2023-07-13T22:11:27;16.80;99.90
23685;DHT22;12020;51.384;6.908;2023-07-13T22:13:57;16.90;99.90
23685;DHT22;12020;51.384;6.908;2023-07-13T22:16:34;16.80;99.90
23685;DHT22;12020;51.384;6.908;2023-07-13T22:19:12;16.80;99.90
23685;DHT22;12020;51.384;6.908;2023-07-13T22:21:44;16.80;99.90
23685;DHT22;12020;51.384;6.908;2023-07-13T22:24:17;16.70;99.90
23685;DHT22;12020;51.384;6.908;2023-07-13T22:26:52;16.60;99.90
23685;DHT22;12020;51.384;6.908;2023-07-13T22:29:29;16.70;99.90
23685;DHT22;12020;51.384;6.908;2023-07-13T22:31:59;16.70;99.90
23685;DHT22;12020;51.384;6.908;2023-07-13T22:34:30;16.60;99.90
23685;DHT22;12020;51.384;6.908;2023-07-13T22:36:58;16.70;99.90
23685;DHT22;12020;51.384;6.908;2023-07-13T22:39:28;16.60;99.90
23685;DHT22;12020;51.384;6.908;2023-07-13T22:41:59;16.60;99.90
23685;DHT22;12020;51.384;6.908;2023-07-13T22:44:30;16.60;99.90
23685;DHT22;12020;51.384;6.908;2023-07-13T22:47:08;16.60;99.90
23685;DHT22;12020;51.384;6.908;2023-07-13T22:49:50;16.60;99.90
23685;DHT22;12020;51.384;6.908;2023-07-13T22:52:18;16.70;99.90
23685;DHT22;12020;51.384;6.908;2023-07-13T22:54:55;16.70;99.90
23685;DHT22;12020;51.384;6.908;2023-07-13T22:57:23;16.70;99.90
23685;DHT22;12020;51.384;6.908;2023-07-13T23:00:15;16.70;99.90
23685;DHT22;12020;51.384;6.908;2023-07-13T23:02:42;16.70;99.90
23685;DHT22;12020;51.384;6.908;2023-07-13T23:05:14;16.70;99.90
23685;DHT22;12020;51.384;6.908;2023-07-13T23:07:46;16.60;99.90
23685;DHT22;12020;51.384;6.908;2023-07-13T23:10:17;16.60;99.90
23685;DHT22;12020;51.384;6.908;2023-07-13T23:12:46;16.60;99.90
23685;DHT22;12020;51.384;6.908;2023-07-13T23:15:21;16.50;99.90
23685;DHT22;12020;51.384;6.908;2023-07-13T23:17:50;16.50;99.90
23685;DHT22;12020;51.384;6.908;2023-07-13T23:20:37;16.50;99.90
23685;DHT22;12020;51.384;6.908;2023-07-13T23:23:12;16.40;99.90
23685;DHT22;12020;51.384;6.908;2023-07-13T23:25:44;16.40;99.90
23685;DHT22;12020;51.384;6.908;2023-07-13T23:28:20;16.40;99.90
23685;DHT22;12020;51.384;6.908;2023-07-13T23:30:48;16.30;99.90
23685;DHT22;12020;51.384;6.908;2023-07-13T23:33:24;16.30;99.90
23685;DHT22;12020;51.384;6.908;2023-07-13T23:35:54;16.30;99.90
23685;DHT22;12020;51.384;6.908;2023-07-13T23:38:34;16.20;99.90
23685;DHT22;12020;51.384;6.908;2023-07-13T23:41:28;16.20;99.90
23685;DHT22;12020;51.384;6.908;2023-07-13T23:43:56;16.20;99.90
23685;DHT22;12020;51.384;6.908;2023-07-13T23:46:40;16.20;99.90
23685;DHT22;12020;51.384;6.908;2023-07-13T23:49:26;16.20;99.90
23685;DHT22;12020;51.384;6.908;2023-07-13T23:52:00;16.20;99.90
23685;DHT22;12020;51.384;6.908;2023-07-13T23:54:32;16.20;99.90
23685;DHT22;12020;51.384;6.908;2023-07-13T23:57:11;16.10;99.90
23685;DHT22;12020;51.384;6.908;2023-07-13T23:59:41;16.10;99.90
